Terminal Aerodrome Forecast
Issued by NWS Cleveland, OH

Home | Current Version | Previous Version | Graphics & Text | Print | Product List | Glossary Off
Versions: 1 2 3 4 5 6 7 8 9 10 11 12 13 14 15 16 17 18 19 20 21 22 23 24 25 26 27 28 29 30 31 32 33 34 35 36 37 38

000
FTUS41 KCLE 231100
TAFYNG
TAF
KYNG 231124Z 2312/2412 07002KT 1/2SM FG VV002
     FM231400 05004KT 2SM BR BKN005
     FM231500 06004KT 6SM HZ BKN020
     FM231800 04006KT P6SM BKN035
     FM240100 06004KT P6SM SCT040
     FM240500 07004KT 5SM BR SCT040
     FM240900 08003KT 1SM BR BKN006=

USA.gov is the U.S. government's official web portal to all federal, state and local government web resources and services.